createdAt,value
2018-02-25T00:04:06.000Z,24.55
2018-02-25T00:14:06.000Z,24.54
2018-02-25T00:24:06.000Z,24.52
2018-02-25T00:34:06.000Z,24.51
2018-02-25T00:44:06.000Z,24.55
2018-02-25T00:54:06.000Z,24.52
2018-02-25T01:04:06.000Z,24.5
2018-02-25T01:14:06.000Z,24.44
2018-02-25T01:24:06.000Z,24.39
2018-02-25T01:34:06.000Z,24.3
2018-02-25T01:44:06.000Z,24.22
2018-02-25T01:54:06.000Z,24.2
2018-02-25T02:04:06.000Z,24.09
2018-02-25T02:14:06.000Z,23.98
2018-02-25T02:24:06.000Z,23.96
2018-02-25T02:34:10.000Z,23.89
2018-02-25T02:44:06.000Z,23.84
2018-02-25T02:54:08.000Z,23.74
2018-02-25T03:04:06.000Z,23.69
2018-02-25T03:14:06.000Z,23.65
2018-02-25T03:24:06.000Z,23.64
2018-02-25T03:34:06.000Z,23.58
2018-02-25T03:44:06.000Z,23.52
2018-02-25T03:54:06.000Z,23.51
2018-02-25T04:04:06.000Z,23.43
2018-02-25T04:14:06.000Z,23.47
2018-02-25T04:24:06.000Z,23.35
2018-02-25T04:34:06.000Z,23.32
2018-02-25T04:44:06.000Z,23.28
2018-02-25T04:54:06.000Z,23.23
2018-02-25T05:04:06.000Z,23.18
2018-02-25T05:14:06.000Z,23.13
2018-02-25T05:24:06.000Z,23.18
2018-02-25T05:34:06.000Z,23.14
2018-02-25T05:44:06.000Z,23.16
2018-02-25T05:54:06.000Z,23.17
2018-02-25T06:04:06.000Z,23.2
2018-02-25T06:14:06.000Z,23.24
2018-02-25T06:24:06.000Z,23.27
2018-02-25T06:34:06.000Z,23.24
2018-02-25T06:44:07.000Z,23.33
2018-02-25T06:54:06.000Z,23.32
2018-02-25T07:04:07.000Z,23.4
2018-02-25T07:14:07.000Z,23.48
2018-02-25T07:24:07.000Z,23.64
2018-02-25T07:34:07.000Z,23.81
2018-02-25T07:44:07.000Z,23.85
2018-02-25T07:54:07.000Z,23.82
2018-02-25T08:04:07.000Z,24
2018-02-25T08:14:07.000Z,24.09
2018-02-25T08:24:07.000Z,20.74
2018-02-25T08:34:07.000Z,23.5
2018-02-25T08:44:07.000Z,23.75
2018-02-25T08:54:07.000Z,23.88
2018-02-25T09:04:07.000Z,24.13
2018-02-25T09:14:07.000Z,24.2
2018-02-25T09:24:07.000Z,24.46
2018-02-25T09:34:07.000Z,24.92
2018-02-25T09:44:07.000Z,25.15
2018-02-25T09:54:07.000Z,25.43
2018-02-25T10:04:07.000Z,25.67
2018-02-25T10:14:07.000Z,25.94
2018-02-25T10:24:07.000Z,26.19
2018-02-25T10:34:07.000Z,26.42
2018-02-25T10:44:07.000Z,26.65
2018-02-25T10:54:07.000Z,26.94
2018-02-25T11:04:07.000Z,27.11
2018-02-25T11:14:07.000Z,27.16
2018-02-25T11:24:07.000Z,27.36
2018-02-25T11:34:07.000Z,27.5
2018-02-25T11:44:07.000Z,27.56
2018-02-25T11:54:07.000Z,27.52
2018-02-25T12:04:07.000Z,27.66
2018-02-25T12:14:07.000Z,27.72
2018-02-25T12:24:07.000Z,27.77
2018-02-25T12:34:07.000Z,27.79
2018-02-25T12:44:07.000Z,27.78
2018-02-25T12:54:07.000Z,27.76
2018-02-25T13:04:07.000Z,27.78
2018-02-25T13:14:07.000Z,27.76
2018-02-25T13:24:07.000Z,27.66
2018-02-25T13:34:07.000Z,27.62
2018-02-25T13:44:07.000Z,27.77
2018-02-25T13:54:07.000Z,27.8
2018-02-25T14:04:07.000Z,27.55
2018-02-25T14:14:07.000Z,27.63
2018-02-25T14:24:08.000Z,27.73
2018-02-25T14:34:07.000Z,27.59
2018-02-25T14:44:07.000Z,27.53
2018-02-25T14:54:09.000Z,27.32
2018-02-25T15:04:08.000Z,27.27
2018-02-25T15:14:08.000Z,27.24
2018-02-25T15:24:08.000Z,27.14
2018-02-25T15:34:08.000Z,27.06
2018-02-25T15:44:08.000Z,26.93
2018-02-25T15:54:08.000Z,26.84
2018-02-25T16:04:08.000Z,26.82
2018-02-25T16:14:09.000Z,26.91
2018-02-25T16:24:08.000Z,26.75
2018-02-25T16:44:08.000Z,26.54
2018-02-25T16:54:08.000Z,26.66
2018-02-25T17:04:08.000Z,26.49
2018-02-25T17:14:08.000Z,26.29
2018-02-25T17:24:08.000Z,26.31
2018-02-25T17:34:09.000Z,26.22
2018-02-25T17:44:08.000Z,26.02
2018-02-25T17:54:08.000Z,25.97
2018-02-25T18:04:08.000Z,25.87
2018-02-25T18:14:11.000Z,25.75
2018-02-25T18:24:08.000Z,25.69
2018-02-25T18:34:08.000Z,25.7
2018-02-25T18:44:08.000Z,25.61
2018-02-25T18:54:08.000Z,25.61
2018-02-25T19:04:08.000Z,25.62
2018-02-25T19:14:08.000Z,25.46
2018-02-25T19:24:08.000Z,25.57
2018-02-25T19:34:08.000Z,25.54
2018-02-25T19:44:09.000Z,25.54
2018-02-25T19:54:08.000Z,25.54
2018-02-25T20:04:08.000Z,25.54
2018-02-25T20:14:08.000Z,25.51
2018-02-25T20:24:08.000Z,25.52
2018-02-25T20:34:08.000Z,25.5
2018-02-25T20:44:08.000Z,25.51
2018-02-25T20:54:08.000Z,25.45
2018-02-25T21:04:08.000Z,25.46
2018-02-25T21:14:08.000Z,25.44
2018-02-25T21:24:08.000Z,25.45
2018-02-25T21:34:08.000Z,25.42
2018-02-25T21:44:08.000Z,25.45
2018-02-25T21:54:08.000Z,25.46
2018-02-25T22:04:08.000Z,25.42
2018-02-25T22:14:08.000Z,25.42
2018-02-25T22:24:08.000Z,25.41
2018-02-25T22:34:08.000Z,25.37
2018-02-25T22:44:08.000Z,25.32
2018-02-25T22:54:08.000Z,25.25
2018-02-25T23:04:08.000Z,25.23
2018-02-25T23:14:08.000Z,25.18
2018-02-25T23:24:09.000Z,25.15
2018-02-25T23:34:09.000Z,25.11
2018-02-25T23:44:13.000Z,25.11
2018-02-25T23:54:09.000Z,25.02
